NOO799 EGNX-EKCH
Flight info
| Callsign | NOO799 |
|---|---|
| Flight time | 1h 25m |
| Altitude | 23000 |
| Route | TNT M868 ADELU/N0476F370 L60 MAMUL L603 LAMSO DCT DOSUR DCT TALSA P729 TUDLO |
| Aircraft | B77L/H-SDE1E2E3FGHIJ2J3J4J5M1RWXY/LB1D1 |
Departure
| Time | 2026-04-23 19:25 |
|---|---|
| Airport | East Midlands Airport (EGNX) |
Arrival
| Time | 2026-04-23 20:51 |
|---|---|
| Airport | Copenhagen Kastrup Airport (EKCH) |
| Time | Latitude | Longitude | Altitude | Speed | Heading |
|---|---|---|---|---|---|
| 2026-04-23 18:11 | 52.82812 | -1.32139 | 290 ft | 0 kts | 180° |
| 2026-04-23 19:03 | 52.82824 | -1.32139 | 290 ft | 3 kts | 180° |
| 2026-04-23 19:03 | 52.82848 | -1.32139 | 291 ft | 3 kts | 181° |
| 2026-04-23 19:03 | 52.82870 | -1.32134 | 291 ft | 2 kts | 204° |
| 2026-04-23 19:04 | 52.82881 | -1.32120 | 291 ft | 0 kts | 236° |
| 2026-04-23 19:04 | 52.82879 | -1.32124 | 291 ft | 1 kts | 232° |
| 2026-04-23 19:04 | 52.82869 | -1.32148 | 291 ft | 0 kts | 244° |
| 2026-04-23 19:05 | 52.82874 | -1.32132 | 291 ft | 3 kts | 241° |
| 2026-04-23 19:05 | 52.82879 | -1.32099 | 291 ft | 3 kts | 274° |
| 2026-04-23 19:05 | 52.82874 | -1.32056 | 290 ft | 3 kts | 280° |
| 2026-04-23 19:05 | 52.82873 | -1.32040 | 290 ft | 0 kts | 272° |
| 2026-04-23 19:06 | 52.82874 | -1.32054 | 290 ft | 2 kts | 275° |
| 2026-04-23 19:06 | 52.82874 | -1.32061 | 290 ft | 0 kts | 275° |
| 2026-04-23 19:12 | 52.82874 | -1.32064 | 290 ft | 1 kts | 275° |
| 2026-04-23 19:12 | 52.82886 | -1.32139 | 292 ft | 6 kts | 307° |
| 2026-04-23 19:12 | 52.82915 | -1.32160 | 293 ft | 3 kts | 346° |
| 2026-04-23 19:12 | 52.82934 | -1.32185 | 294 ft | 6 kts | 300° |
| 2026-04-23 19:13 | 52.82941 | -1.32275 | 295 ft | 8 kts | 270° |
| 2026-04-23 19:13 | 52.82939 | -1.32357 | 296 ft | 6 kts | 268° |
| 2026-04-23 19:13 | 52.82937 | -1.32466 | 298 ft | 13 kts | 269° |
| 2026-04-23 19:13 | 52.82934 | -1.32656 | 299 ft | 19 kts | 269° |
| 2026-04-23 19:14 | 52.82931 | -1.32875 | 301 ft | 18 kts | 268° |
| 2026-04-23 19:14 | 52.82926 | -1.33069 | 303 ft | 15 kts | 268° |
| 2026-04-23 19:14 | 52.82923 | -1.33228 | 307 ft | 12 kts | 268° |
| 2026-04-23 19:14 | 52.82921 | -1.33354 | 309 ft | 9 kts | 269° |
| 2026-04-23 19:15 | 52.82919 | -1.33469 | 311 ft | 12 kts | 269° |
| 2026-04-23 19:15 | 52.82916 | -1.33667 | 312 ft | 21 kts | 268° |
| 2026-04-23 19:15 | 52.82911 | -1.33936 | 312 ft | 23 kts | 269° |
| 2026-04-23 19:15 | 52.82906 | -1.34198 | 312 ft | 21 kts | 268° |
| 2026-04-23 19:16 | 52.82908 | -1.34393 | 315 ft | 13 kts | 274° |
| 2026-04-23 19:16 | 52.82906 | -1.34538 | 316 ft | 11 kts | 268° |
| 2026-04-23 19:16 | 52.82904 | -1.34660 | 318 ft | 9 kts | 268° |
| 2026-04-23 19:17 | 52.82899 | -1.34871 | 317 ft | 10 kts | 268° |
| 2026-04-23 19:17 | 52.82921 | -1.34930 | 317 ft | 3 kts | 353° |
| 2026-04-23 19:17 | 52.82927 | -1.34931 | 317 ft | 0 kts | 356° |
| 2026-04-23 19:18 | 52.82934 | -1.34932 | 317 ft | 0 kts | 356° |
| 2026-04-23 19:23 | 52.82948 | -1.34933 | 317 ft | 3 kts | 358° |
| 2026-04-23 19:24 | 52.83023 | -1.34937 | 318 ft | 6 kts | 359° |
| 2026-04-23 19:24 | 52.83058 | -1.34928 | 319 ft | 3 kts | 42° |
| 2026-04-23 19:24 | 52.83062 | -1.34913 | 320 ft | 0 kts | 87° |
| 2026-04-23 19:25 | 52.83085 | -1.33639 | 315 ft | 124 kts | 88° |
| 2026-04-23 19:25 | 52.83140 | -1.29927 | 1268 ft | 167 kts | 89° |
| 2026-04-23 19:26 | 52.82882 | -1.26194 | 2807 ft | 169 kts | 94° |
| 2026-04-23 19:26 | 52.83111 | -1.24322 | 3430 ft | 170 kts | 66° |
| 2026-04-23 19:27 | 52.85037 | -1.21588 | 4207 ft | 209 kts | 17° |
| 2026-04-23 19:27 | 52.88839 | -1.25567 | 5441 ft | 273 kts | 285° |
| 2026-04-23 19:28 | 52.90298 | -1.31427 | 6029 ft | 277 kts | 304° |
| 2026-04-23 19:28 | 52.92494 | -1.36626 | 6051 ft | 281 kts | 307° |
| 2026-04-23 19:29 | 52.93644 | -1.39295 | 6770 ft | 286 kts | 307° |
| 2026-04-23 19:29 | 52.95908 | -1.44562 | 8561 ft | 285 kts | 307° |
| 2026-04-23 19:30 | 52.98202 | -1.49910 | 9993 ft | 290 kts | 307° |
| 2026-04-23 19:30 | 52.99375 | -1.52667 | 10691 ft | 294 kts | 306° |
| 2026-04-23 19:30 | 53.01835 | -1.58503 | 11508 ft | 327 kts | 306° |
| 2026-04-23 19:31 | 53.03164 | -1.61654 | 11931 ft | 343 kts | 308° |
| 2026-04-23 19:31 | 53.04762 | -1.64674 | 12384 ft | 357 kts | 318° |
| 2026-04-23 19:31 | 53.06736 | -1.67288 | 12859 ft | 372 kts | 327° |
| 2026-04-23 19:31 | 53.09048 | -1.69330 | 13373 ft | 386 kts | 338° |
| 2026-04-23 19:32 | 53.11579 | -1.70922 | 14073 ft | 396 kts | 340° |
| 2026-04-23 19:32 | 53.14241 | -1.72278 | 15008 ft | 400 kts | 348° |
| 2026-04-23 19:32 | 53.16964 | -1.72847 | 16029 ft | 402 kts | 359° |
| 2026-04-23 19:32 | 53.19780 | -1.72613 | 17014 ft | 406 kts | 8° |
| 2026-04-23 19:33 | 53.22523 | -1.71682 | 17922 ft | 411 kts | 13° |
| 2026-04-23 19:33 | 53.25299 | -1.70572 | 18838 ft | 416 kts | 14° |
| 2026-04-23 19:33 | 53.30948 | -1.68299 | 20675 ft | 424 kts | 14° |
| 2026-04-23 19:34 | 53.33738 | -1.66848 | 21575 ft | 426 kts | 22° |
| 2026-04-23 19:34 | 53.36395 | -1.64658 | 22396 ft | 429 kts | 31° |
| 2026-04-23 19:34 | 53.41055 | -1.58349 | 24010 ft | 436 kts | 47° |
| 2026-04-23 19:35 | 53.42945 | -1.54379 | 24711 ft | 442 kts | 55° |
| 2026-04-23 19:35 | 53.44482 | -1.49947 | 25348 ft | 447 kts | 64° |
| 2026-04-23 19:35 | 53.45638 | -1.45069 | 25931 ft | 454 kts | 73° |
| 2026-04-23 19:35 | 53.46341 | -1.39886 | 26579 ft | 459 kts | 82° |
| 2026-04-23 19:36 | 53.46563 | -1.34615 | 27209 ft | 464 kts | 91° |
| 2026-04-23 19:36 | 53.46276 | -1.29221 | 27871 ft | 468 kts | 101° |
| 2026-04-23 19:36 | 53.45475 | -1.23870 | 28524 ft | 472 kts | 110° |
| 2026-04-23 19:36 | 53.44196 | -1.18801 | 29166 ft | 475 kts | 119° |
| 2026-04-23 19:37 | 53.42490 | -1.14107 | 29839 ft | 478 kts | 124° |
| 2026-04-23 19:37 | 53.40776 | -1.09328 | 30747 ft | 478 kts | 121° |
| 2026-04-23 19:37 | 53.39254 | -1.04459 | 31763 ft | 473 kts | 118° |
| 2026-04-23 19:37 | 53.37865 | -0.99495 | 32668 ft | 470 kts | 115° |
| 2026-04-23 19:38 | 53.36593 | -0.94472 | 33441 ft | 469 kts | 114° |
| 2026-04-23 19:38 | 53.35411 | -0.89425 | 34140 ft | 468 kts | 112° |
| 2026-04-23 19:38 | 53.34296 | -0.84379 | 34775 ft | 467 kts | 111° |
| 2026-04-23 19:38 | 53.33219 | -0.79298 | 35368 ft | 466 kts | 111° |
| 2026-04-23 19:39 | 53.32174 | -0.74219 | 35937 ft | 465 kts | 110° |
| 2026-04-23 19:39 | 53.31143 | -0.69091 | 36472 ft | 465 kts | 110° |
| 2026-04-23 19:39 | 53.30136 | -0.63989 | 37107 ft | 465 kts | 109° |
| 2026-04-23 19:39 | 53.29136 | -0.58864 | 37444 ft | 469 kts | 109° |
| 2026-04-23 19:40 | 53.28125 | -0.53639 | 37456 ft | 469 kts | 109° |
| 2026-04-23 19:40 | 53.26153 | -0.43377 | 37444 ft | 461 kts | 109° |
| 2026-04-23 19:41 | 53.24182 | -0.33106 | 37449 ft | 463 kts | 110° |
| 2026-04-23 19:41 | 53.22235 | -0.22967 | 37446 ft | 460 kts | 110° |
| 2026-04-23 19:42 | 53.20269 | -0.12762 | 37429 ft | 461 kts | 110° |
| 2026-04-23 19:42 | 53.18307 | -0.02626 | 37448 ft | 462 kts | 110° |
| 2026-04-23 19:43 | 53.16348 | 0.07453 | 37437 ft | 460 kts | 110° |
| 2026-04-23 19:43 | 53.14366 | 0.17591 | 37428 ft | 462 kts | 110° |
| 2026-04-23 19:44 | 53.12386 | 0.27675 | 37437 ft | 460 kts | 110° |
| 2026-04-23 19:44 | 53.10388 | 0.37797 | 37437 ft | 460 kts | 110° |
| 2026-04-23 19:45 | 53.08400 | 0.47818 | 37441 ft | 460 kts | 111° |
| 2026-04-23 19:45 | 53.06397 | 0.57859 | 37445 ft | 459 kts | 111° |
| 2026-04-23 19:46 | 53.04388 | 0.67882 | 37442 ft | 458 kts | 111° |
| 2026-04-23 19:46 | 53.02371 | 0.77889 | 37443 ft | 458 kts | 111° |
| 2026-04-23 19:47 | 53.00682 | 0.86234 | 37443 ft | 458 kts | 111° |
| 2026-04-23 19:47 | 52.98310 | 0.97894 | 37443 ft | 458 kts | 111° |
| 2026-04-23 19:48 | 52.96899 | 1.08227 | 37441 ft | 462 kts | 104° |
| 2026-04-23 19:48 | 52.95712 | 1.18630 | 37442 ft | 461 kts | 104° |
| 2026-04-23 19:49 | 52.94512 | 1.29006 | 37441 ft | 461 kts | 104° |
| 2026-04-23 19:49 | 52.93298 | 1.39393 | 37443 ft | 461 kts | 104° |
| 2026-04-23 19:50 | 52.92070 | 1.49797 | 37440 ft | 461 kts | 104° |
| 2026-04-23 19:50 | 52.90830 | 1.60214 | 37441 ft | 461 kts | 104° |
| 2026-04-23 19:51 | 52.89584 | 1.70588 | 37444 ft | 461 kts | 105° |
| 2026-04-23 19:51 | 52.88331 | 1.80939 | 37435 ft | 461 kts | 105° |
| 2026-04-23 19:52 | 52.87064 | 1.91322 | 37707 ft | 462 kts | 105° |
| 2026-04-23 19:52 | 52.86435 | 1.96454 | 37451 ft | 463 kts | 105° |
| 2026-04-23 19:52 | 52.85798 | 2.01626 | 37427 ft | 458 kts | 105° |
| 2026-04-23 19:53 | 52.84521 | 2.11932 | 37428 ft | 460 kts | 105° |
| 2026-04-23 19:53 | 52.83230 | 2.22278 | 37422 ft | 459 kts | 105° |
| 2026-04-23 19:54 | 52.81937 | 2.32558 | 37424 ft | 460 kts | 104° |
| 2026-04-23 19:54 | 52.80631 | 2.42871 | 37422 ft | 460 kts | 105° |
| 2026-04-23 19:55 | 52.79313 | 2.53194 | 37423 ft | 461 kts | 105° |
| 2026-04-23 19:55 | 52.77989 | 2.63488 | 37418 ft | 462 kts | 105° |
| 2026-04-23 19:56 | 52.76655 | 2.73788 | 37419 ft | 460 kts | 105° |
| 2026-04-23 19:56 | 52.75306 | 2.84123 | 37419 ft | 461 kts | 105° |
| 2026-04-23 19:57 | 52.74705 | 2.94569 | 37413 ft | 469 kts | 90° |
| 2026-04-23 19:57 | 52.76019 | 3.05132 | 37416 ft | 478 kts | 72° |
| 2026-04-23 19:58 | 52.79153 | 3.14811 | 37423 ft | 484 kts | 60° |
| 2026-04-23 19:58 | 52.82784 | 3.24178 | 37421 ft | 484 kts | 60° |
| 2026-04-23 19:59 | 52.86399 | 3.33564 | 37419 ft | 485 kts | 60° |
| 2026-04-23 19:59 | 52.89972 | 3.42901 | 37417 ft | 484 kts | 60° |
| 2026-04-23 20:00 | 52.93556 | 3.52314 | 37412 ft | 484 kts | 60° |
| 2026-04-23 20:00 | 52.97136 | 3.61761 | 37408 ft | 484 kts | 60° |
| 2026-04-23 20:01 | 53.00693 | 3.71184 | 37413 ft | 483 kts | 61° |
| 2026-04-23 20:01 | 53.04243 | 3.80628 | 37416 ft | 484 kts | 61° |
| 2026-04-23 20:02 | 53.07780 | 3.90070 | 37412 ft | 483 kts | 61° |
| 2026-04-23 20:02 | 53.11313 | 3.99543 | 37405 ft | 482 kts | 61° |
| 2026-04-23 20:03 | 53.14827 | 4.08997 | 37404 ft | 484 kts | 61° |
| 2026-04-23 20:03 | 53.18344 | 4.18502 | 37397 ft | 483 kts | 61° |
| 2026-04-23 20:04 | 53.21838 | 4.28015 | 37399 ft | 484 kts | 61° |
| 2026-04-23 20:04 | 53.25327 | 4.37555 | 37395 ft | 484 kts | 61° |
| 2026-04-23 20:05 | 53.28824 | 4.47153 | 37397 ft | 483 kts | 61° |
| 2026-04-23 20:05 | 53.32299 | 4.56729 | 37403 ft | 485 kts | 60° |
| 2026-04-23 20:06 | 53.35776 | 4.66344 | 37402 ft | 484 kts | 62° |
| 2026-04-23 20:06 | 53.39243 | 4.75970 | 37397 ft | 483 kts | 61° |
| 2026-04-23 20:07 | 53.42690 | 4.85580 | 37392 ft | 484 kts | 61° |
| 2026-04-23 20:07 | 53.46135 | 4.95218 | 37390 ft | 483 kts | 61° |
| 2026-04-23 20:08 | 53.49585 | 5.04909 | 37386 ft | 485 kts | 61° |
| 2026-04-23 20:08 | 53.53025 | 5.14612 | 37387 ft | 484 kts | 61° |
| 2026-04-23 20:09 | 53.56445 | 5.24293 | 37387 ft | 485 kts | 61° |
| 2026-04-23 20:09 | 53.59877 | 5.34047 | 37384 ft | 484 kts | 61° |
| 2026-04-23 20:10 | 53.62715 | 5.42142 | 37379 ft | 485 kts | 61° |
| 2026-04-23 20:10 | 53.66694 | 5.53535 | 37374 ft | 484 kts | 60° |
| 2026-04-23 20:11 | 53.70073 | 5.63252 | 37376 ft | 483 kts | 60° |
| 2026-04-23 20:11 | 53.73453 | 5.73013 | 37371 ft | 483 kts | 61° |
| 2026-04-23 20:12 | 53.76830 | 5.82800 | 37371 ft | 484 kts | 61° |
| 2026-04-23 20:12 | 53.80198 | 5.92603 | 37367 ft | 483 kts | 61° |
| 2026-04-23 20:13 | 53.83559 | 6.02423 | 37368 ft | 484 kts | 61° |
| 2026-04-23 20:13 | 53.86911 | 6.12257 | 37364 ft | 484 kts | 61° |
| 2026-04-23 20:14 | 53.90246 | 6.22078 | 37362 ft | 484 kts | 61° |
| 2026-04-23 20:14 | 53.93577 | 6.31929 | 37354 ft | 484 kts | 60° |
| 2026-04-23 20:15 | 53.96897 | 6.41786 | 37347 ft | 483 kts | 60° |
| 2026-04-23 20:15 | 54.00217 | 6.51684 | 37337 ft | 483 kts | 60° |
| 2026-04-23 20:16 | 54.03534 | 6.61611 | 37334 ft | 484 kts | 60° |
| 2026-04-23 20:16 | 54.06830 | 6.71515 | 37331 ft | 484 kts | 61° |
| 2026-04-23 20:17 | 54.10109 | 6.81412 | 37328 ft | 483 kts | 61° |
| 2026-04-23 20:17 | 54.13411 | 6.91415 | 37320 ft | 484 kts | 61° |
| 2026-04-23 20:18 | 54.16678 | 7.01353 | 37321 ft | 483 kts | 61° |
| 2026-04-23 20:18 | 54.19958 | 7.11375 | 37320 ft | 483 kts | 61° |
| 2026-04-23 20:19 | 54.23217 | 7.21371 | 37321 ft | 484 kts | 60° |
| 2026-04-23 20:19 | 54.26472 | 7.31398 | 37296 ft | 484 kts | 60° |
| 2026-04-23 20:20 | 54.29728 | 7.41464 | 37298 ft | 484 kts | 60° |
| 2026-04-23 20:20 | 54.32979 | 7.51562 | 37290 ft | 485 kts | 60° |
| 2026-04-23 20:21 | 54.36202 | 7.61615 | 37281 ft | 484 kts | 60° |
| 2026-04-23 20:21 | 54.39440 | 7.71754 | 37281 ft | 484 kts | 61° |
| 2026-04-23 20:22 | 54.42630 | 7.81787 | 37273 ft | 484 kts | 60° |
| 2026-04-23 20:22 | 54.45840 | 7.91925 | 37276 ft | 483 kts | 60° |
| 2026-04-23 20:23 | 54.49036 | 8.02058 | 37268 ft | 483 kts | 60° |
| 2026-04-23 20:23 | 54.52216 | 8.12188 | 37269 ft | 484 kts | 60° |
| 2026-04-23 20:24 | 54.55388 | 8.22333 | 37263 ft | 483 kts | 60° |
| 2026-04-23 20:24 | 54.58564 | 8.32531 | 37254 ft | 483 kts | 60° |
| 2026-04-23 20:25 | 54.61709 | 8.42676 | 37251 ft | 482 kts | 60° |
| 2026-04-23 20:25 | 54.64850 | 8.52852 | 37251 ft | 482 kts | 60° |
| 2026-04-23 20:26 | 54.67786 | 8.63236 | 37239 ft | 485 kts | 66° |
| 2026-04-23 20:26 | 54.70205 | 8.74085 | 37233 ft | 486 kts | 68° |
| 2026-04-23 20:27 | 54.72607 | 8.84970 | 37223 ft | 485 kts | 68° |
| 2026-04-23 20:27 | 54.75011 | 8.95925 | 37207 ft | 484 kts | 68° |
| 2026-04-23 20:28 | 54.77385 | 9.06793 | 37219 ft | 485 kts | 67° |
| 2026-04-23 20:28 | 54.79757 | 9.17718 | 37205 ft | 484 kts | 67° |
| 2026-04-23 20:28 | 54.80921 | 9.23098 | 37094 ft | 480 kts | 67° |
| 2026-04-23 20:29 | 54.82090 | 9.28520 | 36279 ft | 482 kts | 67° |
| 2026-04-23 20:29 | 54.83252 | 9.33919 | 35516 ft | 481 kts | 67° |
| 2026-04-23 20:29 | 54.84420 | 9.39362 | 34804 ft | 480 kts | 67° |
| 2026-04-23 20:29 | 54.85587 | 9.44811 | 34051 ft | 480 kts | 67° |
| 2026-04-23 20:30 | 54.86745 | 9.50236 | 33292 ft | 481 kts | 67° |
| 2026-04-23 20:30 | 54.89055 | 9.61096 | 31625 ft | 487 kts | 67° |
| 2026-04-23 20:30 | 54.90218 | 9.66582 | 30799 ft | 490 kts | 68° |
| 2026-04-23 20:31 | 54.91388 | 9.72123 | 30323 ft | 485 kts | 68° |
| 2026-04-23 20:31 | 54.92536 | 9.77581 | 29857 ft | 481 kts | 68° |
| 2026-04-23 20:31 | 54.93678 | 9.83018 | 29327 ft | 478 kts | 67° |
| 2026-04-23 20:31 | 54.94796 | 9.88356 | 28796 ft | 475 kts | 67° |
| 2026-04-23 20:32 | 54.95918 | 9.93725 | 28262 ft | 473 kts | 67° |
| 2026-04-23 20:32 | 54.97035 | 9.99084 | 27710 ft | 470 kts | 67° |
| 2026-04-23 20:32 | 54.98141 | 10.04410 | 27164 ft | 468 kts | 67° |
| 2026-04-23 20:32 | 54.99242 | 10.09722 | 26600 ft | 466 kts | 67° |
| 2026-04-23 20:33 | 55.00319 | 10.14934 | 26044 ft | 462 kts | 67° |
| 2026-04-23 20:33 | 55.01402 | 10.20186 | 25481 ft | 457 kts | 66° |
| 2026-04-23 20:33 | 55.02459 | 10.25333 | 25183 ft | 447 kts | 66° |
| 2026-04-23 20:33 | 55.03502 | 10.30419 | 25163 ft | 452 kts | 66° |
| 2026-04-23 20:34 | 55.04558 | 10.35576 | 25159 ft | 454 kts | 66° |
| 2026-04-23 20:34 | 55.05609 | 10.40728 | 25156 ft | 452 kts | 66° |
| 2026-04-23 20:34 | 55.06652 | 10.45852 | 25153 ft | 451 kts | 66° |
| 2026-04-23 20:34 | 55.07697 | 10.50998 | 25149 ft | 452 kts | 66° |
| 2026-04-23 20:35 | 55.08725 | 10.56081 | 25044 ft | 442 kts | 66° |
| 2026-04-23 20:35 | 55.09745 | 10.61133 | 24413 ft | 441 kts | 66° |
| 2026-04-23 20:35 | 55.10763 | 10.66183 | 23637 ft | 442 kts | 67° |
| 2026-04-23 20:35 | 55.11769 | 10.71192 | 23031 ft | 440 kts | 67° |
| 2026-04-23 20:36 | 55.12762 | 10.76150 | 22554 ft | 434 kts | 67° |
| 2026-04-23 20:36 | 55.13753 | 10.81109 | 22045 ft | 430 kts | 67° |
| 2026-04-23 20:36 | 55.14722 | 10.85974 | 21399 ft | 425 kts | 67° |
| 2026-04-23 20:36 | 55.15683 | 10.90809 | 20550 ft | 419 kts | 67° |
| 2026-04-23 20:37 | 55.16613 | 10.95498 | 19600 ft | 414 kts | 67° |
| 2026-04-23 20:37 | 55.17545 | 11.00206 | 18641 ft | 410 kts | 67° |
| 2026-04-23 20:37 | 55.18465 | 11.04871 | 17722 ft | 404 kts | 67° |
| 2026-04-23 20:37 | 55.19367 | 11.09448 | 16817 ft | 399 kts | 66° |
| 2026-04-23 20:38 | 55.20250 | 11.13943 | 15904 ft | 394 kts | 66° |
| 2026-04-23 20:38 | 55.21127 | 11.18419 | 14984 ft | 389 kts | 66° |
| 2026-04-23 20:38 | 55.21991 | 11.22840 | 14084 ft | 384 kts | 66° |
| 2026-04-23 20:38 | 55.22847 | 11.27226 | 13186 ft | 379 kts | 66° |
| 2026-04-23 20:39 | 55.23692 | 11.31565 | 12282 ft | 375 kts | 66° |
| 2026-04-23 20:39 | 55.24524 | 11.35844 | 11590 ft | 373 kts | 66° |
| 2026-04-23 20:39 | 55.25354 | 11.40126 | 11095 ft | 370 kts | 66° |
| 2026-04-23 20:39 | 55.26162 | 11.44302 | 10595 ft | 367 kts | 66° |
| 2026-04-23 20:40 | 55.26978 | 11.48523 | 10089 ft | 363 kts | 66° |
| 2026-04-23 20:40 | 55.27782 | 11.52698 | 9587 ft | 360 kts | 67° |
| 2026-04-23 20:40 | 55.28572 | 11.56805 | 9109 ft | 357 kts | 66° |
| 2026-04-23 20:40 | 55.29362 | 11.60922 | 8615 ft | 354 kts | 67° |
| 2026-04-23 20:41 | 55.30135 | 11.64963 | 8112 ft | 351 kts | 67° |
| 2026-04-23 20:41 | 55.30904 | 11.68984 | 7621 ft | 348 kts | 68° |
| 2026-04-23 20:41 | 55.31671 | 11.73007 | 7121 ft | 345 kts | 68° |
| 2026-04-23 20:41 | 55.32430 | 11.76995 | 6641 ft | 342 kts | 68° |
| 2026-04-23 20:42 | 55.33172 | 11.80900 | 6151 ft | 340 kts | 69° |
| 2026-04-23 20:42 | 55.33908 | 11.84781 | 5653 ft | 337 kts | 69° |
| 2026-04-23 20:42 | 55.34648 | 11.88692 | 5176 ft | 334 kts | 69° |
| 2026-04-23 20:42 | 55.35365 | 11.92491 | 5016 ft | 332 kts | 69° |
| 2026-04-23 20:43 | 55.36096 | 11.96365 | 5003 ft | 334 kts | 69° |
| 2026-04-23 20:43 | 55.36822 | 12.00224 | 4999 ft | 334 kts | 69° |
| 2026-04-23 20:43 | 55.37548 | 12.04088 | 4999 ft | 332 kts | 69° |
| 2026-04-23 20:43 | 55.38263 | 12.07911 | 4628 ft | 327 kts | 70° |
| 2026-04-23 20:44 | 55.38965 | 12.11665 | 4026 ft | 329 kts | 70° |
| 2026-04-23 20:44 | 55.39671 | 12.15451 | 3864 ft | 316 kts | 70° |
| 2026-04-23 20:44 | 55.40327 | 12.18978 | 3848 ft | 299 kts | 70° |
| 2026-04-23 20:44 | 55.40953 | 12.22356 | 3844 ft | 284 kts | 70° |
| 2026-04-23 20:45 | 55.41550 | 12.25573 | 3838 ft | 270 kts | 69° |
| 2026-04-23 20:45 | 55.42119 | 12.28650 | 3829 ft | 256 kts | 69° |
| 2026-04-23 20:45 | 55.42656 | 12.31553 | 3821 ft | 243 kts | 69° |
| 2026-04-23 20:45 | 55.43162 | 12.34279 | 3799 ft | 230 kts | 68° |
| 2026-04-23 20:46 | 55.43903 | 12.36702 | 3557 ft | 224 kts | 48° |
| 2026-04-23 20:46 | 55.44966 | 12.38609 | 3404 ft | 215 kts | 39° |
| 2026-04-23 20:46 | 55.46068 | 12.40289 | 3327 ft | 203 kts | 37° |
| 2026-04-23 20:46 | 55.47097 | 12.41806 | 3204 ft | 190 kts | 37° |
| 2026-04-23 20:47 | 55.48081 | 12.43276 | 2952 ft | 184 kts | 37° |
| 2026-04-23 20:47 | 55.49047 | 12.44748 | 2718 ft | 180 kts | 37° |
| 2026-04-23 20:47 | 55.49973 | 12.46165 | 2484 ft | 174 kts | 37° |
| 2026-04-23 20:47 | 55.50891 | 12.47567 | 2256 ft | 174 kts | 37° |
| 2026-04-23 20:48 | 55.51772 | 12.48917 | 2035 ft | 156 kts | 37° |
| 2026-04-23 20:48 | 55.52570 | 12.50135 | 1833 ft | 149 kts | 37° |
| 2026-04-23 20:48 | 55.53336 | 12.51310 | 1631 ft | 145 kts | 37° |
| 2026-04-23 20:48 | 55.54085 | 12.52460 | 1430 ft | 143 kts | 37° |
| 2026-04-23 20:49 | 55.54843 | 12.53624 | 1223 ft | 143 kts | 37° |
| 2026-04-23 20:49 | 55.55589 | 12.54771 | 1023 ft | 143 kts | 38° |
| 2026-04-23 20:49 | 55.56337 | 12.55921 | 822 ft | 143 kts | 38° |
| 2026-04-23 20:49 | 55.57074 | 12.57056 | 622 ft | 142 kts | 38° |
| 2026-04-23 20:50 | 55.57834 | 12.58212 | 408 ft | 142 kts | 39° |
| 2026-04-23 20:50 | 55.58566 | 12.59342 | 218 ft | 141 kts | 39° |
| 2026-04-23 20:50 | 55.59312 | 12.60504 | 45 ft | 141 kts | 39° |
| 2026-04-23 20:50 | 55.59980 | 12.61527 | 18 ft | 105 kts | 40° |
| 2026-04-23 20:51 | 55.60411 | 12.62195 | 22 ft | 61 kts | 40° |
| 2026-04-23 20:51 | 55.60693 | 12.62627 | 25 ft | 49 kts | 40° |
| 2026-04-23 20:51 | 55.60961 | 12.62857 | 28 ft | 33 kts | 12° |
| 2026-04-23 20:51 | 55.61109 | 12.62924 | 29 ft | 16 kts | 20° |
| 2026-04-23 20:52 | 55.61198 | 12.63031 | 28 ft | 15 kts | 40° |
| 2026-04-23 20:52 | 55.61280 | 12.63158 | 27 ft | 15 kts | 41° |
| 2026-04-23 20:52 | 55.61354 | 12.63274 | 28 ft | 13 kts | 41° |
| 2026-04-23 20:52 | 55.61423 | 12.63381 | 28 ft | 13 kts | 40° |
| 2026-04-23 20:53 | 55.61489 | 12.63484 | 28 ft | 12 kts | 40° |
| 2026-04-23 20:53 | 55.61553 | 12.63582 | 30 ft | 11 kts | 40° |
| 2026-04-23 20:53 | 55.61608 | 12.63667 | 31 ft | 10 kts | 40° |
| 2026-04-23 20:53 | 55.61660 | 12.63746 | 30 ft | 10 kts | 40° |
| 2026-04-23 20:54 | 55.61720 | 12.63838 | 29 ft | 11 kts | 40° |
| 2026-04-23 20:54 | 55.61780 | 12.63934 | 28 ft | 11 kts | 41° |
| 2026-04-23 20:54 | 55.61840 | 12.64027 | 28 ft | 11 kts | 39° |
| 2026-04-23 20:54 | 55.61917 | 12.64111 | 25 ft | 13 kts | 24° |
| 2026-04-23 20:55 | 55.62003 | 12.64180 | 25 ft | 13 kts | 24° |
| 2026-04-23 20:55 | 55.62093 | 12.64252 | 22 ft | 15 kts | 24° |
| 2026-04-23 20:55 | 55.62185 | 12.64332 | 22 ft | 14 kts | 28° |
| 2026-04-23 20:55 | 55.62210 | 12.64466 | 22 ft | 13 kts | 122° |
| 2026-04-23 20:56 | 55.62160 | 12.64601 | 22 ft | 12 kts | 122° |
| 2026-04-23 20:56 | 55.62111 | 12.64737 | 22 ft | 15 kts | 122° |
| 2026-04-23 20:56 | 55.62047 | 12.64910 | 22 ft | 16 kts | 122° |
| 2026-04-23 20:56 | 55.61986 | 12.65076 | 22 ft | 15 kts | 126° |
| 2026-04-23 20:57 | 55.61927 | 12.65233 | 22 ft | 15 kts | 123° |
| 2026-04-23 20:57 | 55.61869 | 12.65388 | 22 ft | 14 kts | 123° |
| 2026-04-23 20:57 | 55.61815 | 12.65537 | 22 ft | 14 kts | 123° |
| 2026-04-23 20:57 | 55.61762 | 12.65681 | 22 ft | 14 kts | 123° |
| 2026-04-23 20:58 | 55.61705 | 12.65836 | 19 ft | 15 kts | 123° |
| 2026-04-23 20:58 | 55.61648 | 12.65997 | 19 ft | 15 kts | 113° |
| 2026-04-23 20:58 | 55.61639 | 12.66184 | 15 ft | 16 kts | 77° |
| 2026-04-23 20:58 | 55.61697 | 12.66347 | 15 ft | 15 kts | 39° |
| 2026-04-23 20:59 | 55.61771 | 12.66404 | 15 ft | 9 kts | 12° |
| 2026-04-23 20:59 | 55.61830 | 12.66445 | 15 ft | 9 kts | 45° |
| 2026-04-23 20:59 | 55.61851 | 12.66551 | 15 ft | 9 kts | 79° |
| 2026-04-23 20:59 | 55.61863 | 12.66664 | 15 ft | 9 kts | 79° |
| 2026-04-23 21:00 | 55.61876 | 12.66778 | 15 ft | 9 kts | 79° |
| 2026-04-23 21:00 | 55.61888 | 12.66893 | 15 ft | 9 kts | 79° |
| 2026-04-23 21:00 | 55.61930 | 12.66961 | 16 ft | 7 kts | 34° |
| 2026-04-23 21:00 | 55.61944 | 12.67020 | 18 ft | 4 kts | 81° |
| 2026-04-23 21:01 | 55.61948 | 12.67059 | 19 ft | 2 kts | 79° |
| 2026-04-23 21:01 | 55.61951 | 12.67089 | 19 ft | 0 kts | 79° |
| 2026-04-23 21:01 | 55.61951 | 12.67090 | 19 ft | 0 kts | 79° |